sensor_id;sensor_type;location;lat;lon;timestamp;pressure;altitude;pressure_sealevel;temperature;humidity
6387;BME280;3226;42.162;24.756;2024-02-04T00:01:09;99981.97;;;7.66;61.73
6387;BME280;3226;42.162;24.756;2024-02-04T00:03:37;99984.88;;;7.62;61.45
6387;BME280;3226;42.162;24.756;2024-02-04T00:06:06;99966.81;;;7.46;61.69
6387;BME280;3226;42.162;24.756;2024-02-04T00:08:34;99984.69;;;7.65;61.73
6387;BME280;3226;42.162;24.756;2024-02-04T00:11:02;99995.06;;;7.52;61.85
6387;BME280;3226;42.162;24.756;2024-02-04T00:13:31;99995.25;;;7.49;61.99
6387;BME280;3226;42.162;24.756;2024-02-04T00:16:00;99994.66;;;7.58;62.00
6387;BME280;3226;42.162;24.756;2024-02-04T00:18:28;99993.69;;;7.46;62.21
6387;BME280;3226;42.162;24.756;2024-02-04T00:20:57;100002.81;;;7.39;62.57
6387;BME280;3226;42.162;24.756;2024-02-04T00:23:25;99888.19;;;6.84;62.54
6387;BME280;3226;42.162;24.756;2024-02-04T00:25:53;99996.75;;;7.38;62.67
6387;BME280;3226;42.162;24.756;2024-02-04T00:28:20;99972.34;;;7.27;62.49
6387;BME280;3226;42.162;24.756;2024-02-04T00:30:48;99991.19;;;7.45;62.44
6387;BME280;3226;42.162;24.756;2024-02-04T00:33:21;99976.63;;;7.28;62.97
6387;BME280;3226;42.162;24.756;2024-02-04T00:35:49;99988.34;;;7.20;63.99
6387;BME280;3226;42.162;24.756;2024-02-04T00:38:17;99980.59;;;7.33;63.02
6387;BME280;3226;42.162;24.756;2024-02-04T00:40:45;99985.84;;;7.46;62.73
6387;BME280;3226;42.162;24.756;2024-02-04T00:43:13;99985.59;;;7.36;63.44
6387;BME280;3226;42.162;24.756;2024-02-04T00:45:41;99969.75;;;7.27;63.50
6387;BME280;3226;42.162;24.756;2024-02-04T00:48:09;99995.16;;;7.50;62.91
6387;BME280;3226;42.162;24.756;2024-02-04T00:50:38;99992.34;;;7.53;63.35
6387;BME280;3226;42.162;24.756;2024-02-04T00:53:07;99995.19;;;7.63;62.75
6387;BME280;3226;42.162;24.756;2024-02-04T00:55:35;99993.97;;;7.69;62.52
6387;BME280;3226;42.162;24.756;2024-02-04T00:58:03;99992.34;;;7.81;62.12
6387;BME280;3226;42.162;24.756;2024-02-04T01:00:31;99996.47;;;7.71;61.85
6387;BME280;3226;42.162;24.756;2024-02-04T01:02:59;99994.78;;;7.70;61.96
6387;BME280;3226;42.162;24.756;2024-02-04T01:05:27;99995.94;;;7.65;62.11
6387;BME280;3226;42.162;24.756;2024-02-04T01:07:57;100007.34;;;7.77;61.79
6387;BME280;3226;42.162;24.756;2024-02-04T01:10:25;100006.81;;;7.72;61.86
6387;BME280;3226;42.162;24.756;2024-02-04T01:12:53;100007.22;;;7.66;61.85
6387;BME280;3226;42.162;24.756;2024-02-04T01:15:21;100005.34;;;7.68;61.61
6387;BME280;3226;42.162;24.756;2024-02-04T01:17:49;100003.41;;;7.57;62.36
6387;BME280;3226;42.162;24.756;2024-02-04T01:20:18;99989.19;;;7.48;62.91
6387;BME280;3226;42.162;24.756;2024-02-04T01:22:46;99997.75;;;7.50;62.38
6387;BME280;3226;42.162;24.756;2024-02-04T01:25:15;99982.97;;;7.51;62.72
6387;BME280;3226;42.162;24.756;2024-02-04T01:27:43;99966.28;;;7.26;63.47
6387;BME280;3226;42.162;24.756;2024-02-04T01:30:11;99991.53;;;7.53;63.45
6387;BME280;3226;42.162;24.756;2024-02-04T01:32:39;99989.00;;;7.51;63.45
6387;BME280;3226;42.162;24.756;2024-02-04T01:35:08;99987.34;;;7.50;63.42
6387;BME280;3226;42.162;24.756;2024-02-04T01:37:36;99989.19;;;7.48;63.99
6387;BME280;3226;42.162;24.756;2024-02-04T01:40:05;99993.66;;;7.61;63.58
6387;BME280;3226;42.162;24.756;2024-02-04T01:42:35;99988.72;;;7.56;63.49
6387;BME280;3226;42.162;24.756;2024-02-04T01:45:03;99982.16;;;7.63;63.53
6387;BME280;3226;42.162;24.756;2024-02-04T01:47:32;99987.72;;;7.72;63.19
6387;BME280;3226;42.162;24.756;2024-02-04T01:50:00;99987.78;;;7.57;64.09
6387;BME280;3226;42.162;24.756;2024-02-04T01:52:29;99984.25;;;7.58;63.89
6387;BME280;3226;42.162;24.756;2024-02-04T01:54:58;99990.50;;;7.69;63.41
6387;BME280;3226;42.162;24.756;2024-02-04T01:57:27;99985.91;;;7.59;64.07
6387;BME280;3226;42.162;24.756;2024-02-04T01:59:56;99980.03;;;7.56;64.48
6387;BME280;3226;42.162;24.756;2024-02-04T02:02:25;99981.72;;;7.57;64.64
6387;BME280;3226;42.162;24.756;2024-02-04T02:04:53;99968.06;;;7.53;64.77
6387;BME280;3226;42.162;24.756;2024-02-04T02:07:21;99976.31;;;7.60;64.72
6387;BME280;3226;42.162;24.756;2024-02-04T02:09:51;99966.94;;;7.57;64.92
6387;BME280;3226;42.162;24.756;2024-02-04T02:12:23;99954.50;;;7.48;65.41
6387;BME280;3226;42.162;24.756;2024-02-04T02:14:59;99954.59;;;7.46;65.56
6387;BME280;3226;42.162;24.756;2024-02-04T02:17:34;99950.84;;;7.50;65.35
6387;BME280;3226;42.162;24.756;2024-02-04T02:20:08;99972.72;;;7.75;64.80
6387;BME280;3226;42.162;24.756;2024-02-04T02:22:45;99977.28;;;7.72;65.18
6387;BME280;3226;42.162;24.756;2024-02-04T02:25:17;99964.16;;;7.73;64.93
6387;BME280;3226;42.162;24.756;2024-02-04T02:27:48;99967.53;;;7.88;65.10
6387;BME280;3226;42.162;24.756;2024-02-04T02:30:16;99965.41;;;7.80;65.25
6387;BME280;3226;42.162;24.756;2024-02-04T02:32:46;99973.16;;;7.82;65.14
6387;BME280;3226;42.162;24.756;2024-02-04T02:35:15;99971.28;;;7.84;65.00
6387;BME280;3226;42.162;24.756;2024-02-04T02:37:46;99964.25;;;7.72;65.39
6387;BME280;3226;42.162;24.756;2024-02-04T02:40:23;99971.28;;;7.84;65.96
6387;BME280;3226;42.162;24.756;2024-02-04T02:42:53;99967.63;;;7.87;65.57
6387;BME280;3226;42.162;24.756;2024-02-04T02:45:24;99945.91;;;7.73;65.59
6387;BME280;3226;42.162;24.756;2024-02-04T02:47:54;99957.19;;;7.87;65.75
6387;BME280;3226;42.162;24.756;2024-02-04T02:50:22;99959.06;;;7.85;65.38
6387;BME280;3226;42.162;24.756;2024-02-04T02:52:51;99958.66;;;7.91;65.23
6387;BME280;3226;42.162;24.756;2024-02-04T02:55:20;99957.19;;;7.87;64.98
6387;BME280;3226;42.162;24.756;2024-02-04T02:57:48;99953.44;;;7.78;65.49
6387;BME280;3226;42.162;24.756;2024-02-04T03:00:16;99961.06;;;7.94;65.16
6387;BME280;3226;42.162;24.756;2024-02-04T03:02:45;99943.22;;;7.88;64.87
6387;BME280;3226;42.162;24.756;2024-02-04T03:05:13;99949.28;;;7.88;65.06
6387;BME280;3226;42.162;24.756;2024-02-04T03:07:43;99838.31;;;7.18;65.00
6387;BME280;3226;42.162;24.756;2024-02-04T03:10:11;99949.28;;;7.88;64.95
6387;BME280;3226;42.162;24.756;2024-02-04T03:12:40;99948.63;;;7.85;65.75
6387;BME280;3226;42.162;24.756;2024-02-04T03:15:08;99944.88;;;7.89;65.57
6387;BME280;3226;42.162;24.756;2024-02-04T03:17:36;99938.41;;;7.81;65.78
6387;BME280;3226;42.162;24.756;2024-02-04T03:20:05;99943.75;;;7.80;65.52
6387;BME280;3226;42.162;24.756;2024-02-04T03:22:33;99936.41;;;7.72;65.60
6387;BME280;3226;42.162;24.756;2024-02-04T03:25:01;99943.09;;;7.76;65.16
6387;BME280;3226;42.162;24.756;2024-02-04T03:27:29;99909.16;;;7.50;64.53
6387;BME280;3226;42.162;24.756;2024-02-04T03:29:59;99942.56;;;7.71;65.04
6387;BME280;3226;42.162;24.756;2024-02-04T03:32:28;99939.31;;;7.67;64.71
6387;BME280;3226;42.162;24.756;2024-02-04T03:35:00;99945.38;;;7.68;64.52
6387;BME280;3226;42.162;24.756;2024-02-04T03:37:29;99937.75;;;7.65;64.85
6387;BME280;3226;42.162;24.756;2024-02-04T03:39:57;99941.34;;;7.49;65.94
6387;BME280;3226;42.162;24.756;2024-02-04T03:42:25;99936.56;;;7.43;66.25
6387;BME280;3226;42.162;24.756;2024-02-04T03:44:53;99948.34;;;7.49;66.10
6387;BME280;3226;42.162;24.756;2024-02-04T03:47:22;99935.81;;;7.41;66.44
6387;BME280;3226;42.162;24.756;2024-02-04T03:49:50;99936.75;;;7.40;66.60
6387;BME280;3226;42.162;24.756;2024-02-04T03:52:18;99939.09;;;7.30;66.89
6387;BME280;3226;42.162;24.756;2024-02-04T03:54:46;99921.66;;;7.18;67.33
6387;BME280;3226;42.162;24.756;2024-02-04T03:57:14;99945.31;;;7.42;66.82
6387;BME280;3226;42.162;24.756;2024-02-04T03:59:44;99937.59;;;7.53;66.23
6387;BME280;3226;42.162;24.756;2024-02-04T04:02:13;99925.19;;;7.44;65.78
6387;BME280;3226;42.162;24.756;2024-02-04T04:04:42;99930.31;;;7.59;65.88
6387;BME280;3226;42.162;24.756;2024-02-04T04:07:14;99919.81;;;7.60;65.81
6387;BME280;3226;42.162;24.756;2024-02-04T04:09:43;99895.72;;;7.44;65.40
6387;BME280;3226;42.162;24.756;2024-02-04T04:12:11;99920.03;;;7.70;64.40
6387;BME280;3226;42.162;24.756;2024-02-04T04:14:39;99901.28;;;7.65;64.46
6387;BME280;3226;42.162;24.756;2024-02-04T04:17:07;99917.13;;;7.62;64.16
6387;BME280;3226;42.162;24.756;2024-02-04T04:19:35;99907.69;;;7.46;65.25
6387;BME280;3226;42.162;24.756;2024-02-04T04:22:05;99917.91;;;7.49;66.23
6387;BME280;3226;42.162;24.756;2024-02-04T04:24:33;99912.69;;;7.49;67.82
6387;BME280;3226;42.162;24.756;2024-02-04T04:27:02;99910.63;;;7.55;68.03
6387;BME280;3226;42.162;24.756;2024-02-04T04:29:30;99920.66;;;7.61;67.85
6387;BME280;3226;42.162;24.756;2024-02-04T04:31:58;99889.25;;;7.49;68.15
6387;BME280;3226;42.162;24.756;2024-02-04T04:34:26;99900.34;;;7.66;68.23
6387;BME280;3226;42.162;24.756;2024-02-04T04:36:54;99900.75;;;7.73;67.73
6387;BME280;3226;42.162;24.756;2024-02-04T04:39:23;99905.56;;;7.79;67.67
6387;BME280;3226;42.162;24.756;2024-02-04T04:41:51;99899.19;;;7.70;67.70
6387;BME280;3226;42.162;24.756;2024-02-04T04:44:19;99907.31;;;7.78;67.17
6387;BME280;3226;42.162;24.756;2024-02-04T04:46:47;99897.63;;;7.80;67.22
6387;BME280;3226;42.162;24.756;2024-02-04T04:49:15;99902.44;;;7.87;66.52
6387;BME280;3226;42.162;24.756;2024-02-04T04:51:44;99896.69;;;7.94;66.13
6387;BME280;3226;42.162;24.756;2024-02-04T04:54:13;99878.34;;;7.96;65.16
6387;BME280;3226;42.162;24.756;2024-02-04T04:56:42;99897.53;;;7.95;65.35
6387;BME280;3226;42.162;24.756;2024-02-04T04:59:10;99905.47;;;7.93;65.50
6387;BME280;3226;42.162;24.756;2024-02-04T05:01:45;99899.00;;;7.99;65.34
6387;BME280;3226;42.162;24.756;2024-02-04T05:04:13;99915.59;;;7.98;65.48
6387;BME280;3226;42.162;24.756;2024-02-04T05:06:41;99925.16;;;7.85;66.30
6387;BME280;3226;42.162;24.756;2024-02-04T05:09:09;99927.16;;;7.94;66.01
6387;BME280;3226;42.162;24.756;2024-02-04T05:11:37;99924.44;;;7.95;65.38
6387;BME280;3226;42.162;24.756;2024-02-04T05:14:07;99929.66;;;7.82;66.39
6387;BME280;3226;42.162;24.756;2024-02-04T05:16:35;99910.97;;;7.63;66.80
6387;BME280;3226;42.162;24.756;2024-02-04T05:19:03;99935.47;;;7.73;66.70
6387;BME280;3226;42.162;24.756;2024-02-04T05:21:31;99932.56;;;7.65;67.50
6387;BME280;3226;42.162;24.756;2024-02-04T05:23:59;99943.59;;;7.69;67.05
6387;BME280;3226;42.162;24.756;2024-02-04T05:26:27;99936.63;;;7.69;67.19
6387;BME280;3226;42.162;24.756;2024-02-04T05:28:55;99947.50;;;7.48;67.81
6387;BME280;3226;42.162;24.756;2024-02-04T05:31:24;99929.38;;;7.60;67.53
6387;BME280;3226;42.162;24.756;2024-02-04T05:33:52;99940.25;;;7.66;67.40
6387;BME280;3226;42.162;24.756;2024-02-04T05:36:20;99943.81;;;7.65;67.83
6387;BME280;3226;42.162;24.756;2024-02-04T05:38:48;99946.00;;;7.72;67.72
6387;BME280;3226;42.162;24.756;2024-02-04T05:41:16;99953.75;;;7.86;67.44
6387;BME280;3226;42.162;24.756;2024-02-04T05:43:44;99954.78;;;7.84;66.95
6387;BME280;3226;42.162;24.756;2024-02-04T05:46:13;99959.25;;;7.81;67.11
6387;BME280;3226;42.162;24.756;2024-02-04T05:48:43;99952.19;;;7.84;67.73
6387;BME280;3226;42.162;24.756;2024-02-04T05:51:12;99960.66;;;7.87;68.86
6387;BME280;3226;42.162;24.756;2024-02-04T05:53:40;99962.94;;;7.92;68.55
6387;BME280;3226;42.162;24.756;2024-02-04T05:56:08;99961.47;;;7.88;69.44
6387;BME280;3226;42.162;24.756;2024-02-04T05:58:36;99956.97;;;7.90;70.14
6387;BME280;3226;42.162;24.756;2024-02-04T06:01:04;99955.94;;;7.92;70.35
6387;BME280;3226;42.162;24.756;2024-02-04T06:03:32;99956.38;;;7.99;70.34
6387;BME280;3226;42.162;24.756;2024-02-04T06:06:02;99948.56;;;7.99;71.03
6387;BME280;3226;42.162;24.756;2024-02-04T06:08:30;99958.88;;;8.14;71.07
6387;BME280;3226;42.162;24.756;2024-02-04T06:10:58;99958.59;;;8.18;70.75
6387;BME280;3226;42.162;24.756;2024-02-04T06:13:26;99961.94;;;8.20;70.92
6387;BME280;3226;42.162;24.756;2024-02-04T06:15:54;99948.25;;;8.17;70.30
6387;BME280;3226;42.162;24.756;2024-02-04T06:18:22;99948.97;;;8.32;69.90
6387;BME280;3226;42.162;24.756;2024-02-04T06:20:50;99921.31;;;8.29;69.83
6387;BME280;3226;42.162;24.756;2024-02-04T06:23:19;99934.91;;;8.34;69.87
6387;BME280;3226;42.162;24.756;2024-02-04T06:25:47;99928.41;;;8.40;70.35
6387;BME280;3226;42.162;24.756;2024-02-04T06:28:15;99933.03;;;8.49;69.58
6387;BME280;3226;42.162;24.756;2024-02-04T06:30:44;99921.41;;;8.41;69.48
6387;BME280;3226;42.162;24.756;2024-02-04T06:33:12;99915.88;;;8.45;70.08
6387;BME280;3226;42.162;24.756;2024-02-04T06:35:40;99914.22;;;8.57;69.59
6387;BME280;3226;42.162;24.756;2024-02-04T06:38:08;99921.59;;;8.63;69.23
6387;BME280;3226;42.162;24.756;2024-02-04T06:40:37;99892.94;;;8.37;68.81
6387;BME280;3226;42.162;24.756;2024-02-04T06:43:05;99930.06;;;8.67;68.53
6387;BME280;3226;42.162;24.756;2024-02-04T06:45:33;99937.03;;;8.79;67.71
6387;BME280;3226;42.162;24.756;2024-02-04T06:48:01;99911.25;;;8.75;67.08
6387;BME280;3226;42.162;24.756;2024-02-04T06:50:30;99915.66;;;8.61;66.15
6387;BME280;3226;42.162;24.756;2024-02-04T06:52:58;99958.13;;;8.89;65.90
6387;BME280;3226;42.162;24.756;2024-02-04T06:55:26;99959.69;;;8.92;66.05
6387;BME280;3226;42.162;24.756;2024-02-04T06:57:55;99936.47;;;9.00;66.10
6387;BME280;3226;42.162;24.756;2024-02-04T07:00:23;99937.91;;;9.04;65.69
6387;BME280;3226;42.162;24.756;2024-02-04T07:02:51;99968.94;;;9.09;65.23
6387;BME280;3226;42.162;24.756;2024-02-04T07:05:20;99974.47;;;9.04;65.49
6387;BME280;3226;42.162;24.756;2024-02-04T07:07:49;99954.03;;;8.98;65.53
6387;BME280;3226;42.162;24.756;2024-02-04T07:10:17;99962.41;;;9.15;65.74
6387;BME280;3226;42.162;24.756;2024-02-04T07:12:45;99929.63;;;8.73;66.46
6387;BME280;3226;42.162;24.756;2024-02-04T07:15:15;99988.47;;;9.16;66.66
6387;BME280;3226;42.162;24.756;2024-02-04T07:17:43;99988.00;;;9.22;66.32
6387;BME280;3226;42.162;24.756;2024-02-04T07:20:11;99976.63;;;9.23;66.63
6387;BME280;3226;42.162;24.756;2024-02-04T07:22:39;99989.47;;;9.26;66.78
6387;BME280;3226;42.162;24.756;2024-02-04T07:25:07;99989.31;;;9.41;66.19
6387;BME280;3226;42.162;24.756;2024-02-04T07:27:36;99958.38;;;9.35;65.87
6387;BME280;3226;42.162;24.756;2024-02-04T07:30:05;99993.84;;;9.75;65.34
6387;BME280;3226;42.162;24.756;2024-02-04T07:32:34;99971.69;;;9.56;64.85
6387;BME280;3226;42.162;24.756;2024-02-04T07:35:05;99982.56;;;9.74;64.42
6387;BME280;3226;42.162;24.756;2024-02-04T07:37:36;99983.78;;;9.81;64.49
6387;BME280;3226;42.162;24.756;2024-02-04T07:40:04;99999.09;;;10.10;63.79
6387;BME280;3226;42.162;24.756;2024-02-04T07:42:33;99993.88;;;10.22;63.39
6387;BME280;3226;42.162;24.756;2024-02-04T07:45:01;99976.16;;;10.25;63.04
6387;BME280;3226;42.162;24.756;2024-02-04T07:47:36;99961.34;;;10.49;62.52
6387;BME280;3226;42.162;24.756;2024-02-04T07:50:05;99945.72;;;10.81;61.02
6387;BME280;3226;42.162;24.756;2024-02-04T07:52:34;99985.91;;;11.59;59.14
6387;BME280;3226;42.162;24.756;2024-02-04T07:55:02;99983.25;;;11.91;58.02
6387;BME280;3226;42.162;24.756;2024-02-04T07:57:31;99988.34;;;12.04;57.60
6387;BME280;3226;42.162;24.756;2024-02-04T07:59:59;99943.47;;;12.07;56.35
6387;BME280;3226;42.162;24.756;2024-02-04T08:02:30;99918.88;;;11.87;55.96
6387;BME280;3226;42.162;24.756;2024-02-04T08:05:00;99982.41;;;12.02;57.37
6387;BME280;3226;42.162;24.756;2024-02-04T08:07:28;99970.66;;;12.27;57.07
6387;BME280;3226;42.162;24.756;2024-02-04T08:09:57;99835.28;;;11.82;55.97
6387;BME280;3226;42.162;24.756;2024-02-04T08:12:25;99959.47;;;12.56;55.69
6387;BME280;3226;42.162;24.756;2024-02-04T08:14:53;99959.91;;;12.62;56.09
6387;BME280;3226;42.162;24.756;2024-02-04T08:17:21;99947.56;;;12.52;55.20
6387;BME280;3226;42.162;24.756;2024-02-04T08:19:49;99955.28;;;12.44;55.36
6387;BME280;3226;42.162;24.756;2024-02-04T08:22:19;99899.53;;;12.09;55.64
6387;BME280;3226;42.162;24.756;2024-02-04T08:24:47;99947.06;;;12.37;55.52
6387;BME280;3226;42.162;24.756;2024-02-04T08:27:15;99944.22;;;12.19;56.18
6387;BME280;3226;42.162;24.756;2024-02-04T08:29:44;99939.25;;;12.16;56.08
6387;BME280;3226;42.162;24.756;2024-02-04T08:32:12;99946.22;;;12.06;56.66
6387;BME280;3226;42.162;24.756;2024-02-04T08:34:40;99954.28;;;12.14;56.37
6387;BME280;3226;42.162;24.756;2024-02-04T08:37:08;99877.84;;;11.86;55.77
6387;BME280;3226;42.162;24.756;2024-02-04T08:39:38;99890.28;;;12.05;55.51
6387;BME280;3226;42.162;24.756;2024-02-04T08:42:07;99948.63;;;12.81;54.66
6387;BME280;3226;42.162;24.756;2024-02-04T08:44:35;99875.25;;;12.48;53.61
6387;BME280;3226;42.162;24.756;2024-02-04T08:47:06;99905.94;;;13.08;53.00
6387;BME280;3226;42.162;24.756;2024-02-04T08:49:37;99940.59;;;13.43;52.51
6387;BME280;3226;42.162;24.756;2024-02-04T08:52:05;99862.91;;;13.09;52.45
6387;BME280;3226;42.162;24.756;2024-02-04T08:54:34;99945.50;;;14.05;51.43
6387;BME280;3226;42.162;24.756;2024-02-04T08:57:03;99947.06;;;14.36;49.97
6387;BME280;3226;42.162;24.756;2024-02-04T08:59:31;99864.88;;;14.32;49.01
6387;BME280;3226;42.162;24.756;2024-02-04T09:01:59;99957.34;;;15.23;47.95
6387;BME280;3226;42.162;24.756;2024-02-04T09:04:27;99942.50;;;15.58;46.89
6387;BME280;3226;42.162;24.756;2024-02-04T09:06:55;99872.22;;;15.02;46.94
6387;BME280;3226;42.162;24.756;2024-02-04T09:09:22;99952.75;;;15.61;46.83
6387;BME280;3226;42.162;24.756;2024-02-04T09:11:51;99951.09;;;15.60;46.69
6387;BME280;3226;42.162;24.756;2024-02-04T09:14:20;99954.59;;;15.69;46.32
6387;BME280;3226;42.162;24.756;2024-02-04T09:16:48;99935.06;;;15.80;45.91
6387;BME280;3226;42.162;24.756;2024-02-04T09:19:16;99954.88;;;15.84;46.67
6387;BME280;3226;42.162;24.756;2024-02-04T09:21:44;99945.88;;;16.13;45.62
6387;BME280;3226;42.162;24.756;2024-02-04T09:24:12;99944.81;;;16.32;45.05
6387;BME280;3226;42.162;24.756;2024-02-04T09:26:40;99948.66;;;16.38;44.50
6387;BME280;3226;42.162;24.756;2024-02-04T09:29:08;99940.09;;;16.09;44.84
6387;BME280;3226;42.162;24.756;2024-02-04T09:31:38;99928.09;;;15.97;45.54
6387;BME280;3226;42.162;24.756;2024-02-04T09:34:07;99930.78;;;16.05;44.80
6387;BME280;3226;42.162;24.756;2024-02-04T09:36:35;99915.75;;;15.97;44.69
6387;BME280;3226;42.162;24.756;2024-02-04T09:39:03;99904.41;;;15.87;44.74
6387;BME280;3226;42.162;24.756;2024-02-04T09:41:33;99902.75;;;15.86;44.93
6387;BME280;3226;42.162;24.756;2024-02-04T09:44:02;99901.47;;;15.90;44.74
6387;BME280;3226;42.162;24.756;2024-02-04T09:46:30;99804.41;;;15.31;44.88
6387;BME280;3226;42.162;24.756;2024-02-04T09:49:00;99866.13;;;15.65;45.21
6387;BME280;3226;42.162;24.756;2024-02-04T09:51:30;99893.66;;;16.07;44.72
6387;BME280;3226;42.162;24.756;2024-02-04T09:54:03;99887.88;;;15.85;44.78
6387;BME280;3226;42.162;24.756;2024-02-04T09:56:34;99875.03;;;15.64;44.97
6387;BME280;3226;42.162;24.756;2024-02-04T09:59:04;99884.97;;;15.88;44.75
6387;BME280;3226;42.162;24.756;2024-02-04T10:01:32;99885.66;;;15.72;44.53
6387;BME280;3226;42.162;24.756;2024-02-04T10:04:01;99872.81;;;15.32;45.89
6387;BME280;3226;42.162;24.756;2024-02-04T10:06:31;99863.59;;;15.55;45.50
6387;BME280;3226;42.162;24.756;2024-02-04T10:08:59;99868.41;;;15.59;45.21
6387;BME280;3226;42.162;24.756;2024-02-04T10:11:28;99861.59;;;15.30;46.21
6387;BME280;3226;42.162;24.756;2024-02-04T10:13:56;99872.63;;;15.08;45.46
6387;BME280;3226;42.162;24.756;2024-02-04T10:16:24;99886.22;;;14.57;45.89
6387;BME280;3226;42.162;24.756;2024-02-04T10:18:52;99866.81;;;14.58;46.15
6387;BME280;3226;42.162;24.756;2024-02-04T10:21:24;99840.53;;;14.20;46.95
6387;BME280;3226;42.162;24.756;2024-02-04T10:23:52;99849.38;;;14.47;46.80
6387;BME280;3226;42.162;24.756;2024-02-04T10:26:22;99850.78;;;14.23;46.67
6387;BME280;3226;42.162;24.756;2024-02-04T10:28:50;99834.88;;;14.15;46.57
6387;BME280;3226;42.162;24.756;2024-02-04T10:31:19;99861.69;;;13.91;47.44
6387;BME280;3226;42.162;24.756;2024-02-04T10:33:47;99858.25;;;13.80;47.71
6387;BME280;3226;42.162;24.756;2024-02-04T10:36:15;99758.84;;;13.07;47.71
6387;BME280;3226;42.162;24.756;2024-02-04T10:38:45;99760.38;;;13.09;47.86
6387;BME280;3226;42.162;24.756;2024-02-04T10:41:15;99826.75;;;13.41;48.21
6387;BME280;3226;42.162;24.756;2024-02-04T10:43:44;99868.78;;;13.80;48.06
6387;BME280;3226;42.162;24.756;2024-02-04T10:46:13;99869.06;;;13.87;47.87
6387;BME280;3226;42.162;24.756;2024-02-04T10:48:43;99873.72;;;14.03;47.71
6387;BME280;3226;42.162;24.756;2024-02-04T10:51:14;99838.09;;;13.61;48.00
6387;BME280;3226;42.162;24.756;2024-02-04T10:53:46;99809.72;;;13.65;47.93
6387;BME280;3226;42.162;24.756;2024-02-04T10:56:25;99892.72;;;14.35;47.43
6387;BME280;3226;42.162;24.756;2024-02-04T10:58:56;99888.59;;;14.32;47.37
6387;BME280;3226;42.162;24.756;2024-02-04T11:01:27;99905.56;;;14.48;46.68
6387;BME280;3226;42.162;24.756;2024-02-04T11:03:56;99903.75;;;14.48;46.70
6387;BME280;3226;42.162;24.756;2024-02-04T11:06:26;99855.16;;;13.95;46.88
6387;BME280;3226;42.162;24.756;2024-02-04T11:08:56;99897.34;;;14.23;47.14
6387;BME280;3226;42.162;24.756;2024-02-04T11:11:27;99901.34;;;14.27;47.01
6387;BME280;3226;42.162;24.756;2024-02-04T11:13:59;99892.34;;;14.29;47.08
6387;BME280;3226;42.162;24.756;2024-02-04T11:16:50;99896.00;;;14.46;46.49
6387;BME280;3226;42.162;24.756;2024-02-04T11:19:34;99864.00;;;14.41;46.66
6387;BME280;3226;42.162;24.756;2024-02-04T11:22:29;99876.00;;;14.54;46.59
6387;BME280;3226;42.162;24.756;2024-02-04T11:25:17;99878.34;;;14.85;46.45
6387;BME280;3226;42.162;24.756;2024-02-04T11:27:47;99873.81;;;14.95;45.62
6387;BME280;3226;42.162;24.756;2024-02-04T11:30:15;99834.13;;;14.79;45.65
6387;BME280;3226;42.162;24.756;2024-02-04T11:32:44;99860.72;;;15.40;44.76
6387;BME280;3226;42.162;24.756;2024-02-04T11:35:13;99769.84;;;14.98;44.35
6387;BME280;3226;42.162;24.756;2024-02-04T11:37:42;99841.53;;;15.56;44.52
6387;BME280;3226;42.162;24.756;2024-02-04T11:40:15;99837.72;;;15.58;44.45
6387;BME280;3226;42.162;24.756;2024-02-04T11:42:46;99833.91;;;15.79;44.33
6387;BME280;3226;42.162;24.756;2024-02-04T11:45:14;99802.16;;;15.44;44.17
6387;BME280;3226;42.162;24.756;2024-02-04T11:47:43;99836.66;;;15.43;44.50
6387;BME280;3226;42.162;24.756;2024-02-04T11:50:11;99816.56;;;15.06;45.37
6387;BME280;3226;42.162;24.756;2024-02-04T11:52:40;99815.19;;;15.01;45.39
6387;BME280;3226;42.162;24.756;2024-02-04T11:55:14;99762.97;;;15.05;44.97
6387;BME280;3226;42.162;24.756;2024-02-04T11:57:43;99813.19;;;15.66;44.60
6387;BME280;3226;42.162;24.756;2024-02-04T12:00:11;99797.50;;;15.38;44.22
6387;BME280;3226;42.162;24.756;2024-02-04T12:02:39;99787.28;;;15.35;44.01
6387;BME280;3226;42.162;24.756;2024-02-04T12:05:07;99783.44;;;15.29;44.12
6387;BME280;3226;42.162;24.756;2024-02-04T12:07:36;99773.13;;;15.71;43.85
6387;BME280;3226;42.162;24.756;2024-02-04T12:10:10;99772.06;;;15.55;44.28
6387;BME280;3226;42.162;24.756;2024-02-04T12:12:40;99770.25;;;15.29;44.62
6387;BME280;3226;42.162;24.756;2024-02-04T12:15:08;99759.19;;;15.26;45.11
6387;BME280;3226;42.162;24.756;2024-02-04T12:17:37;99786.91;;;15.30;44.89
6387;BME280;3226;42.162;24.756;2024-02-04T12:20:06;99777.56;;;15.17;44.91
6387;BME280;3226;42.162;24.756;2024-02-04T12:22:34;99800.69;;;15.42;45.20
6387;BME280;3226;42.162;24.756;2024-02-04T12:25:04;99803.06;;;15.53;45.26
6387;BME280;3226;42.162;24.756;2024-02-04T12:27:33;99805.75;;;15.35;44.95
6387;BME280;3226;42.162;24.756;2024-02-04T12:30:04;99804.25;;;15.14;45.28
6387;BME280;3226;42.162;24.756;2024-02-04T12:32:33;99802.97;;;15.18;45.33
6387;BME280;3226;42.162;24.756;2024-02-04T12:35:06;99805.59;;;15.18;45.34
6387;BME280;3226;42.162;24.756;2024-02-04T12:37:35;99791.69;;;15.08;45.35
6387;BME280;3226;42.162;24.756;2024-02-04T12:40:04;99814.72;;;15.24;45.61
6387;BME280;3226;42.162;24.756;2024-02-04T12:42:33;99800.28;;;15.10;46.25
6387;BME280;3226;42.162;24.756;2024-02-04T12:45:02;99802.16;;;15.18;45.74
6387;BME280;3226;42.162;24.756;2024-02-04T12:47:30;99806.09;;;15.14;46.02
6387;BME280;3226;42.162;24.756;2024-02-04T12:49:59;99810.22;;;14.98;46.54
6387;BME280;3226;42.162;24.756;2024-02-04T12:52:29;99796.34;;;15.14;46.58
6387;BME280;3226;42.162;24.756;2024-02-04T12:55:01;99803.75;;;15.11;46.41
6387;BME280;3226;42.162;24.756;2024-02-04T12:57:29;99814.50;;;14.99;46.64
6387;BME280;3226;42.162;24.756;2024-02-04T13:00:05;99809.91;;;15.01;46.64
6387;BME280;3226;42.162;24.756;2024-02-04T13:02:35;99819.56;;;15.11;46.57
6387;BME280;3226;42.162;24.756;2024-02-04T13:05:03;99824.84;;;15.11;46.61
6387;BME280;3226;42.162;24.756;2024-02-04T13:07:32;99707.41;;;14.62;46.00
6387;BME280;3226;42.162;24.756;2024-02-04T13:10:00;99825.88;;;15.36;45.90
6387;BME280;3226;42.162;24.756;2024-02-04T13:12:28;99819.19;;;15.24;45.77
6387;BME280;3226;42.162;24.756;2024-02-04T13:14:59;99815.66;;;15.15;45.52
6387;BME280;3226;42.162;24.756;2024-02-04T13:17:29;99809.19;;;14.91;46.77
6387;BME280;3226;42.162;24.756;2024-02-04T13:19:57;99809.69;;;15.13;46.50
6387;BME280;3226;42.162;24.756;2024-02-04T13:22:25;99806.81;;;15.24;46.46
6387;BME280;3226;42.162;24.756;2024-02-04T13:24:53;99808.44;;;15.43;46.21
6387;BME280;3226;42.162;24.756;2024-02-04T13:27:21;99806.00;;;15.24;45.77